sensor_id;sensor_type;location;lat;lon;timestamp;P1;durP1;ratioP1;P2;durP2;ratioP2
68216;SDS011;55037;52.354;4.992;2023-03-21T00:01:52;35.13;;;16.05;;
68216;SDS011;55037;52.354;4.992;2023-03-21T00:04:20;35.70;;;15.77;;
68216;SDS011;55037;52.354;4.992;2023-03-21T00:06:49;28.10;;;13.15;;
68216;SDS011;55037;52.354;4.992;2023-03-21T00:09:16;29.17;;;14.45;;
68216;SDS011;55037;52.354;4.992;2023-03-21T00:11:44;24.55;;;11.50;;
68216;SDS011;55037;52.354;4.992;2023-03-21T00:14:12;26.58;;;13.82;;
68216;SDS011;55037;52.354;4.992;2023-03-21T00:16:46;39.13;;;16.37;;
68216;SDS011;55037;52.354;4.992;2023-03-21T00:19:19;29.02;;;13.40;;
68216;SDS011;55037;52.354;4.992;2023-03-21T00:21:47;42.00;;;17.23;;
68216;SDS011;55037;52.354;4.992;2023-03-21T00:24:35;32.88;;;13.88;;
68216;SDS011;55037;52.354;4.992;2023-03-21T00:27:02;29.92;;;14.95;;
68216;SDS011;55037;52.354;4.992;2023-03-21T00:29:50;36.47;;;15.27;;
68216;SDS011;55037;52.354;4.992;2023-03-21T00:32:18;32.70;;;14.77;;
68216;SDS011;55037;52.354;4.992;2023-03-21T00:34:47;47.90;;;17.75;;
68216;SDS011;55037;52.354;4.992;2023-03-21T00:37:32;43.33;;;17.35;;
68216;SDS011;55037;52.354;4.992;2023-03-21T00:39:59;42.70;;;16.92;;
68216;SDS011;55037;52.354;4.992;2023-03-21T00:42:29;44.97;;;17.47;;
68216;SDS011;55037;52.354;4.992;2023-03-21T00:44:56;30.02;;;12.95;;
68216;SDS011;55037;52.354;4.992;2023-03-21T00:47:23;42.53;;;16.50;;
68216;SDS011;55037;52.354;4.992;2023-03-21T00:49:51;40.65;;;17.65;;
68216;SDS011;55037;52.354;4.992;2023-03-21T00:52:19;33.97;;;14.73;;
68216;SDS011;55037;52.354;4.992;2023-03-21T00:55:04;27.20;;;11.73;;
68216;SDS011;55037;52.354;4.992;2023-03-21T00:57:33;32.60;;;14.57;;
68216;SDS011;55037;52.354;4.992;2023-03-21T01:00:06;31.25;;;13.13;;
68216;SDS011;55037;52.354;4.992;2023-03-21T01:02:36;31.00;;;13.77;;
68216;SDS011;55037;52.354;4.992;2023-03-21T01:05:04;23.63;;;10.98;;
68216;SDS011;55037;52.354;4.992;2023-03-21T01:07:31;27.13;;;13.20;;
68216;SDS011;55037;52.354;4.992;2023-03-21T01:09:59;28.45;;;13.57;;
68216;SDS011;55037;52.354;4.992;2023-03-21T01:12:27;22.65;;;11.48;;
68216;SDS011;55037;52.354;4.992;2023-03-21T01:14:54;39.55;;;15.85;;
68216;SDS011;55037;52.354;4.992;2023-03-21T01:17:23;43.85;;;15.75;;
68216;SDS011;55037;52.354;4.992;2023-03-21T01:19:50;40.30;;;15.87;;
68216;SDS011;55037;52.354;4.992;2023-03-21T01:22:18;24.73;;;12.15;;
68216;SDS011;55037;52.354;4.992;2023-03-21T01:24:46;32.03;;;13.90;;
68216;SDS011;55037;52.354;4.992;2023-03-21T01:27:34;18.70;;;9.43;;
68216;SDS011;55037;52.354;4.992;2023-03-21T01:30:02;35.05;;;13.75;;
68216;SDS011;55037;52.354;4.992;2023-03-21T01:32:43;29.00;;;12.37;;
68216;SDS011;55037;52.354;4.992;2023-03-21T01:35:10;30.75;;;13.23;;
68216;SDS011;55037;52.354;4.992;2023-03-21T01:37:38;35.80;;;15.57;;
68216;SDS011;55037;52.354;4.992;2023-03-21T01:40:05;37.38;;;15.35;;
68216;SDS011;55037;52.354;4.992;2023-03-21T01:42:39;31.50;;;13.48;;
68216;SDS011;55037;52.354;4.992;2023-03-21T01:46:04;31.17;;;12.40;;
68216;SDS011;55037;52.354;4.992;2023-03-21T01:48:14;35.65;;;14.80;;
68216;SDS011;55037;52.354;4.992;2023-03-21T01:50:48;30.55;;;14.05;;
68216;SDS011;55037;52.354;4.992;2023-03-21T01:53:35;35.33;;;16.20;;
68216;SDS011;55037;52.354;4.992;2023-03-21T01:56:05;48.47;;;18.58;;
68216;SDS011;55037;52.354;4.992;2023-03-21T01:58:50;48.03;;;18.83;;
68216;SDS011;55037;52.354;4.992;2023-03-21T02:01:41;38.45;;;16.83;;
68216;SDS011;55037;52.354;4.992;2023-03-21T02:04:10;36.55;;;17.02;;
68216;SDS011;55037;52.354;4.992;2023-03-21T02:06:51;50.85;;;19.73;;
68216;SDS011;55037;52.354;4.992;2023-03-21T02:09:45;38.05;;;16.38;;
68216;SDS011;55037;52.354;4.992;2023-03-21T02:12:19;50.40;;;20.47;;
68216;SDS011;55037;52.354;4.992;2023-03-21T02:14:47;54.80;;;20.42;;
68216;SDS011;55037;52.354;4.992;2023-03-21T02:17:49;56.28;;;21.27;;
68216;SDS011;55037;52.354;4.992;2023-03-21T02:32:23;45.35;;;17.63;;
68216;SDS011;55037;52.354;4.992;2023-03-21T02:37:50;45.08;;;18.67;;
68216;SDS011;55037;52.354;4.992;2023-03-21T02:40:33;44.20;;;18.83;;
68216;SDS011;55037;52.354;4.992;2023-03-21T02:43:33;44.42;;;18.05;;
68216;SDS011;55037;52.354;4.992;2023-03-21T02:46:17;33.15;;;14.95;;
68216;SDS011;55037;52.354;4.992;2023-03-21T02:49:06;39.03;;;17.45;;
68216;SDS011;55037;52.354;4.992;2023-03-21T02:51:42;31.70;;;15.25;;
68216;SDS011;55037;52.354;4.992;2023-03-21T02:54:12;64.80;;;21.90;;
68216;SDS011;55037;52.354;4.992;2023-03-21T02:57:01;54.78;;;19.52;;
68216;SDS011;55037;52.354;4.992;2023-03-21T02:59:30;56.42;;;20.98;;
68216;SDS011;55037;52.354;4.992;2023-03-21T03:02:03;74.15;;;23.10;;
68216;SDS011;55037;52.354;4.992;2023-03-21T03:04:31;55.33;;;19.70;;
68216;SDS011;55037;52.354;4.992;2023-03-21T03:07:12;46.23;;;19.03;;
68216;SDS011;55037;52.354;4.992;2023-03-21T03:15:46;37.25;;;16.35;;
68216;SDS011;55037;52.354;4.992;2023-03-21T03:18:40;64.00;;;23.55;;
68216;SDS011;55037;52.354;4.992;2023-03-21T03:24:14;64.15;;;23.77;;
68216;SDS011;55037;52.354;4.992;2023-03-21T03:26:54;65.22;;;25.25;;
68216;SDS011;55037;52.354;4.992;2023-03-21T03:29:27;42.38;;;17.55;;
68216;SDS011;55037;52.354;4.992;2023-03-21T03:31:58;49.40;;;21.08;;
68216;SDS011;55037;52.354;4.992;2023-03-21T03:34:34;72.80;;;26.07;;
68216;SDS011;55037;52.354;4.992;2023-03-21T03:37:07;34.35;;;16.55;;
68216;SDS011;55037;52.354;4.992;2023-03-21T03:39:40;60.25;;;24.80;;
68216;SDS011;55037;52.354;4.992;2023-03-21T03:42:13;59.05;;;23.58;;
68216;SDS011;55037;52.354;4.992;2023-03-21T03:45:01;58.83;;;22.40;;
68216;SDS011;55037;52.354;4.992;2023-03-21T03:55:54;55.92;;;22.25;;
68216;SDS011;55037;52.354;4.992;2023-03-21T03:58:24;56.72;;;21.90;;
68216;SDS011;55037;52.354;4.992;2023-03-21T04:01:10;47.43;;;20.47;;
68216;SDS011;55037;52.354;4.992;2023-03-21T04:03:38;46.53;;;20.38;;
68216;SDS011;55037;52.354;4.992;2023-03-21T04:06:17;36.47;;;16.38;;
68216;SDS011;55037;52.354;4.992;2023-03-21T04:08:46;57.55;;;22.30;;
68216;SDS011;55037;52.354;4.992;2023-03-21T04:11:14;34.55;;;16.38;;
68216;SDS011;55037;52.354;4.992;2023-03-21T04:13:46;51.83;;;21.27;;
68216;SDS011;55037;52.354;4.992;2023-03-21T04:16:19;34.60;;;16.02;;
68216;SDS011;55037;52.354;4.992;2023-03-21T04:18:49;54.95;;;21.50;;
68216;SDS011;55037;52.354;4.992;2023-03-21T04:21:18;40.22;;;18.08;;
68216;SDS011;55037;52.354;4.992;2023-03-21T04:23:45;43.22;;;19.33;;
68216;SDS011;55037;52.354;4.992;2023-03-21T04:26:12;25.67;;;13.37;;
68216;SDS011;55037;52.354;4.992;2023-03-21T04:28:49;36.17;;;15.45;;
68216;SDS011;55037;52.354;4.992;2023-03-21T04:31:22;36.30;;;15.77;;
68216;SDS011;55037;52.354;4.992;2023-03-21T04:34:04;25.05;;;13.10;;
68216;SDS011;55037;52.354;4.992;2023-03-21T04:36:37;41.90;;;18.90;;
68216;SDS011;55037;52.354;4.992;2023-03-21T04:39:06;36.43;;;15.87;;
68216;SDS011;55037;52.354;4.992;2023-03-21T04:41:39;38.88;;;16.80;;
68216;SDS011;55037;52.354;4.992;2023-03-21T04:44:08;27.27;;;13.05;;
68216;SDS011;55037;52.354;4.992;2023-03-21T04:46:36;38.28;;;17.38;;
68216;SDS011;55037;52.354;4.992;2023-03-21T04:49:05;37.05;;;16.67;;
68216;SDS011;55037;52.354;4.992;2023-03-21T04:51:34;24.80;;;12.00;;
68216;SDS011;55037;52.354;4.992;2023-03-21T04:54:03;39.00;;;18.00;;
68216;SDS011;55037;52.354;4.992;2023-03-21T04:56:31;35.72;;;15.38;;
68216;SDS011;55037;52.354;4.992;2023-03-21T04:59:10;43.03;;;17.05;;
68216;SDS011;55037;52.354;4.992;2023-03-21T05:01:39;44.90;;;17.88;;
68216;SDS011;55037;52.354;4.992;2023-03-21T05:04:09;28.73;;;13.27;;
68216;SDS011;55037;52.354;4.992;2023-03-21T05:06:38;33.63;;;13.00;;
68216;SDS011;55037;52.354;4.992;2023-03-21T05:09:08;19.65;;;9.93;;
68216;SDS011;55037;52.354;4.992;2023-03-21T05:11:36;25.45;;;11.88;;
68216;SDS011;55037;52.354;4.992;2023-03-21T05:14:07;25.77;;;12.48;;
68216;SDS011;55037;52.354;4.992;2023-03-21T05:16:39;43.17;;;16.23;;
68216;SDS011;55037;52.354;4.992;2023-03-21T05:19:15;24.20;;;11.25;;
68216;SDS011;55037;52.354;4.992;2023-03-21T05:21:44;35.40;;;13.65;;
68216;SDS011;55037;52.354;4.992;2023-03-21T05:24:16;26.25;;;12.60;;
68216;SDS011;55037;52.354;4.992;2023-03-21T05:26:46;37.88;;;14.77;;
68216;SDS011;55037;52.354;4.992;2023-03-21T05:29:21;36.07;;;15.67;;
68216;SDS011;55037;52.354;4.992;2023-03-21T05:31:54;37.28;;;16.88;;
68216;SDS011;55037;52.354;4.992;2023-03-21T05:34:23;36.28;;;14.35;;
68216;SDS011;55037;52.354;4.992;2023-03-21T05:36:51;32.60;;;13.68;;
68216;SDS011;55037;52.354;4.992;2023-03-21T05:39:19;35.95;;;14.15;;
68216;SDS011;55037;52.354;4.992;2023-03-21T05:41:59;34.90;;;13.10;;
68216;SDS011;55037;52.354;4.992;2023-03-21T05:44:26;23.75;;;10.35;;
68216;SDS011;55037;52.354;4.992;2023-03-21T05:46:54;41.70;;;15.98;;
68216;SDS011;55037;52.354;4.992;2023-03-21T05:49:27;36.20;;;14.32;;
68216;SDS011;55037;52.354;4.992;2023-03-21T05:51:58;26.15;;;11.27;;
68216;SDS011;55037;52.354;4.992;2023-03-21T05:54:25;30.43;;;13.80;;
68216;SDS011;55037;52.354;4.992;2023-03-21T05:56:52;32.70;;;13.20;;
68216;SDS011;55037;52.354;4.992;2023-03-21T05:59:30;36.40;;;14.20;;
68216;SDS011;55037;52.354;4.992;2023-03-21T06:01:58;36.80;;;14.98;;
68216;SDS011;55037;52.354;4.992;2023-03-21T06:04:25;32.20;;;14.02;;
68216;SDS011;55037;52.354;4.992;2023-03-21T06:06:52;38.70;;;15.63;;
68216;SDS011;55037;52.354;4.992;2023-03-21T06:09:21;41.70;;;16.25;;
68216;SDS011;55037;52.354;4.992;2023-03-21T06:11:54;40.47;;;16.52;;
68216;SDS011;55037;52.354;4.992;2023-03-21T06:14:29;44.63;;;17.50;;
68216;SDS011;55037;52.354;4.992;2023-03-21T06:17:15;39.35;;;17.50;;
68216;SDS011;55037;52.354;4.992;2023-03-21T06:19:48;35.83;;;16.90;;
68216;SDS011;55037;52.354;4.992;2023-03-21T06:22:23;44.53;;;18.67;;
68216;SDS011;55037;52.354;4.992;2023-03-21T06:24:51;45.20;;;17.30;;
68216;SDS011;55037;52.354;4.992;2023-03-21T06:27:18;50.53;;;21.02;;
68216;SDS011;55037;52.354;4.992;2023-03-21T06:29:49;42.70;;;17.52;;
68216;SDS011;55037;52.354;4.992;2023-03-21T06:32:20;52.03;;;19.73;;
68216;SDS011;55037;52.354;4.992;2023-03-21T06:34:52;33.58;;;14.85;;
68216;SDS011;55037;52.354;4.992;2023-03-21T06:37:20;30.02;;;15.10;;
68216;SDS011;55037;52.354;4.992;2023-03-21T06:39:48;34.75;;;15.48;;
68216;SDS011;55037;52.354;4.992;2023-03-21T06:42:16;44.33;;;18.60;;
68216;SDS011;55037;52.354;4.992;2023-03-21T06:44:43;39.63;;;17.03;;
68216;SDS011;55037;52.354;4.992;2023-03-21T06:47:13;43.63;;;18.13;;
68216;SDS011;55037;52.354;4.992;2023-03-21T06:49:43;38.38;;;17.75;;
68216;SDS011;55037;52.354;4.992;2023-03-21T06:52:11;38.67;;;16.67;;
68216;SDS011;55037;52.354;4.992;2023-03-21T06:54:40;30.85;;;14.82;;
68216;SDS011;55037;52.354;4.992;2023-03-21T06:57:13;31.53;;;13.53;;
68216;SDS011;55037;52.354;4.992;2023-03-21T06:59:40;35.08;;;16.13;;
68216;SDS011;55037;52.354;4.992;2023-03-21T07:02:17;38.42;;;17.02;;
68216;SDS011;55037;52.354;4.992;2023-03-21T07:05:05;30.17;;;15.18;;
68216;SDS011;55037;52.354;4.992;2023-03-21T07:07:33;26.50;;;13.90;;
68216;SDS011;55037;52.354;4.992;2023-03-21T07:10:01;31.43;;;14.40;;
68216;SDS011;55037;52.354;4.992;2023-03-21T07:12:34;35.17;;;17.65;;
68216;SDS011;55037;52.354;4.992;2023-03-21T07:15:23;30.50;;;13.10;;
68216;SDS011;55037;52.354;4.992;2023-03-21T07:17:51;29.10;;;13.73;;
68216;SDS011;55037;52.354;4.992;2023-03-21T07:20:18;28.17;;;14.00;;
68216;SDS011;55037;52.354;4.992;2023-03-21T07:22:45;31.70;;;14.23;;
68216;SDS011;55037;52.354;4.992;2023-03-21T07:25:13;29.40;;;13.38;;
68216;SDS011;55037;52.354;4.992;2023-03-21T07:27:40;23.48;;;10.93;;
68216;SDS011;55037;52.354;4.992;2023-03-21T07:30:08;26.10;;;11.60;;
68216;SDS011;55037;52.354;4.992;2023-03-21T07:32:36;38.20;;;15.00;;
68216;SDS011;55037;52.354;4.992;2023-03-21T07:35:08;33.77;;;15.03;;
68216;SDS011;55037;52.354;4.992;2023-03-21T07:37:38;35.97;;;15.13;;
68216;SDS011;55037;52.354;4.992;2023-03-21T07:40:06;28.95;;;12.93;;
68216;SDS011;55037;52.354;4.992;2023-03-21T07:42:40;29.05;;;12.82;;
68216;SDS011;55037;52.354;4.992;2023-03-21T07:45:10;25.00;;;11.32;;
68216;SDS011;55037;52.354;4.992;2023-03-21T07:47:44;27.90;;;11.70;;
68216;SDS011;55037;52.354;4.992;2023-03-21T07:50:11;32.40;;;14.10;;
68216;SDS011;55037;52.354;4.992;2023-03-21T07:52:39;30.67;;;12.82;;
68216;SDS011;55037;52.354;4.992;2023-03-21T07:55:07;34.97;;;12.98;;
68216;SDS011;55037;52.354;4.992;2023-03-21T07:57:34;24.35;;;11.85;;
68216;SDS011;55037;52.354;4.992;2023-03-21T08:00:03;24.83;;;11.50;;
68216;SDS011;55037;52.354;4.992;2023-03-21T08:02:38;25.38;;;10.10;;
68216;SDS011;55037;52.354;4.992;2023-03-21T08:05:06;18.15;;;8.35;;
68216;SDS011;55037;52.354;4.992;2023-03-21T08:07:37;25.58;;;11.45;;
68216;SDS011;55037;52.354;4.992;2023-03-21T08:10:04;23.80;;;12.38;;
68216;SDS011;55037;52.354;4.992;2023-03-21T08:12:32;29.90;;;12.03;;
68216;SDS011;55037;52.354;4.992;2023-03-21T08:14:59;32.33;;;11.45;;
68216;SDS011;55037;52.354;4.992;2023-03-21T08:17:27;33.30;;;12.77;;
68216;SDS011;55037;52.354;4.992;2023-03-21T08:19:54;29.33;;;12.02;;
68216;SDS011;55037;52.354;4.992;2023-03-21T08:22:21;25.45;;;10.98;;
68216;SDS011;55037;52.354;4.992;2023-03-21T08:24:49;32.50;;;12.13;;
68216;SDS011;55037;52.354;4.992;2023-03-21T08:27:16;33.88;;;13.13;;
68216;SDS011;55037;52.354;4.992;2023-03-21T08:29:43;21.83;;;10.00;;
68216;SDS011;55037;52.354;4.992;2023-03-21T08:32:10;22.83;;;10.25;;
68216;SDS011;55037;52.354;4.992;2023-03-21T08:34:38;30.27;;;12.18;;
68216;SDS011;55037;52.354;4.992;2023-03-21T08:37:05;17.40;;;6.93;;
68216;SDS011;55037;52.354;4.992;2023-03-21T08:39:32;20.27;;;8.55;;
68216;SDS011;55037;52.354;4.992;2023-03-21T08:42:00;24.05;;;10.07;;
68216;SDS011;55037;52.354;4.992;2023-03-21T08:44:27;28.48;;;11.65;;
68216;SDS011;55037;52.354;4.992;2023-03-21T08:46:54;22.85;;;9.77;;
68216;SDS011;55037;52.354;4.992;2023-03-21T08:49:21;28.10;;;11.37;;
68216;SDS011;55037;52.354;4.992;2023-03-21T08:51:48;16.40;;;7.68;;
68216;SDS011;55037;52.354;4.992;2023-03-21T08:54:17;24.85;;;11.25;;
68216;SDS011;55037;52.354;4.992;2023-03-21T08:56:46;15.48;;;8.80;;
68216;SDS011;55037;52.354;4.992;2023-03-21T08:59:13;21.10;;;9.98;;
68216;SDS011;55037;52.354;4.992;2023-03-21T09:01:41;21.73;;;9.90;;
68216;SDS011;55037;52.354;4.992;2023-03-21T09:04:08;28.48;;;11.00;;
68216;SDS011;55037;52.354;4.992;2023-03-21T09:06:37;20.75;;;10.50;;
68216;SDS011;55037;52.354;4.992;2023-03-21T09:09:06;16.60;;;8.40;;
68216;SDS011;55037;52.354;4.992;2023-03-21T09:11:34;31.98;;;12.68;;
68216;SDS011;55037;52.354;4.992;2023-03-21T09:14:02;16.60;;;8.67;;
68216;SDS011;55037;52.354;4.992;2023-03-21T09:16:29;17.15;;;8.65;;
68216;SDS011;55037;52.354;4.992;2023-03-21T09:18:57;27.67;;;10.90;;
68216;SDS011;55037;52.354;4.992;2023-03-21T09:21:25;19.40;;;8.95;;
68216;SDS011;55037;52.354;4.992;2023-03-21T09:23:54;18.63;;;8.50;;
68216;SDS011;55037;52.354;4.992;2023-03-21T09:26:25;17.80;;;7.63;;
68216;SDS011;55037;52.354;4.992;2023-03-21T09:28:54;16.98;;;8.43;;
68216;SDS011;55037;52.354;4.992;2023-03-21T09:31:21;17.83;;;7.95;;
68216;SDS011;55037;52.354;4.992;2023-03-21T09:33:49;17.73;;;7.25;;
68216;SDS011;55037;52.354;4.992;2023-03-21T09:36:18;13.95;;;6.80;;
68216;SDS011;55037;52.354;4.992;2023-03-21T09:38:47;16.03;;;6.10;;
68216;SDS011;55037;52.354;4.992;2023-03-21T09:46:59;12.35;;;6.65;;
68216;SDS011;55037;52.354;4.992;2023-03-21T09:49:37;10.45;;;5.07;;
68216;SDS011;55037;52.354;4.992;2023-03-21T09:52:17;10.57;;;4.63;;
68216;SDS011;55037;52.354;4.992;2023-03-21T09:54:51;9.35;;;5.10;;
68216;SDS011;55037;52.354;4.992;2023-03-21T09:59:58;12.35;;;6.00;;
68216;SDS011;55037;52.354;4.992;2023-03-21T10:02:44;11.38;;;5.95;;
68216;SDS011;55037;52.354;4.992;2023-03-21T10:05:22;11.30;;;5.57;;
68216;SDS011;55037;52.354;4.992;2023-03-21T10:07:56;10.82;;;5.55;;
68216;SDS011;55037;52.354;4.992;2023-03-21T10:10:40;12.27;;;6.35;;
68216;SDS011;55037;52.354;4.992;2023-03-21T10:13:20;11.75;;;6.20;;
68216;SDS011;55037;52.354;4.992;2023-03-21T10:15:53;12.70;;;6.55;;
68216;SDS011;55037;52.354;4.992;2023-03-21T10:18:29;11.67;;;5.47;;
68216;SDS011;55037;52.354;4.992;2023-03-21T10:20:56;13.27;;;6.57;;
68216;SDS011;55037;52.354;4.992;2023-03-21T10:23:25;15.50;;;6.82;;
68216;SDS011;55037;52.354;4.992;2023-03-21T10:25:58;13.35;;;6.70;;
68216;SDS011;55037;52.354;4.992;2023-03-21T10:28:32;12.27;;;6.13;;
68216;SDS011;55037;52.354;4.992;2023-03-21T10:31:18;13.27;;;5.93;;
68216;SDS011;55037;52.354;4.992;2023-03-21T10:33:53;15.32;;;7.35;;
68216;SDS011;55037;52.354;4.992;2023-03-21T10:36:22;9.98;;;5.80;;
68216;SDS011;55037;52.354;4.992;2023-03-21T10:38:53;15.00;;;6.60;;
68216;SDS011;55037;52.354;4.992;2023-03-21T10:41:23;13.13;;;5.75;;
68216;SDS011;55037;52.354;4.992;2023-03-21T10:44:02;16.30;;;6.97;;
68216;SDS011;55037;52.354;4.992;2023-03-21T10:46:30;14.18;;;7.47;;
68216;SDS011;55037;52.354;4.992;2023-03-21T10:49:02;17.83;;;7.70;;
68216;SDS011;55037;52.354;4.992;2023-03-21T10:51:34;14.15;;;6.60;;
68216;SDS011;55037;52.354;4.992;2023-03-21T10:54:07;17.63;;;8.20;;
68216;SDS011;55037;52.354;4.992;2023-03-21T10:56:42;18.53;;;8.10;;
68216;SDS011;55037;52.354;4.992;2023-03-21T10:59:17;18.23;;;7.72;;
68216;SDS011;55037;52.354;4.992;2023-03-21T11:01:49;18.45;;;8.15;;
68216;SDS011;55037;52.354;4.992;2023-03-21T11:04:19;16.30;;;8.23;;
68216;SDS011;55037;52.354;4.992;2023-03-21T11:06:52;14.90;;;7.63;;
68216;SDS011;55037;52.354;4.992;2023-03-21T11:09:22;14.67;;;7.50;;
68216;SDS011;55037;52.354;4.992;2023-03-21T11:14:34;16.08;;;8.07;;
68216;SDS011;55037;52.354;4.992;2023-03-21T11:19:49;12.75;;;7.15;;
68216;SDS011;55037;52.354;4.992;2023-03-21T11:22:22;17.93;;;8.07;;
68216;SDS011;55037;52.354;4.992;2023-03-21T11:24:52;14.48;;;7.18;;
68216;SDS011;55037;52.354;4.992;2023-03-21T11:27:25;23.35;;;7.90;;
68216;SDS011;55037;52.354;4.992;2023-03-21T11:29:55;19.83;;;8.38;;
68216;SDS011;55037;52.354;4.992;2023-03-21T11:32:29;21.10;;;8.98;;
68216;SDS011;55037;52.354;4.992;2023-03-21T11:35:00;11.83;;;7.20;;
68216;SDS011;55037;52.354;4.992;2023-03-21T11:42:56;17.48;;;8.10;;
68216;SDS011;55037;52.354;4.992;2023-03-21T11:45:29;15.02;;;8.45;;
68216;SDS011;55037;52.354;4.992;2023-03-21T11:47:59;18.47;;;8.37;;
68216;SDS011;55037;52.354;4.992;2023-03-21T11:50:33;14.88;;;7.97;;
68216;SDS011;55037;52.354;4.992;2023-03-21T11:53:24;19.73;;;8.90;;
68216;SDS011;55037;52.354;4.992;2023-03-21T12:05:18;16.85;;;8.15;;
68216;SDS011;55037;52.354;4.992;2023-03-21T12:07:53;14.18;;;6.55;;
68216;SDS011;55037;52.354;4.992;2023-03-21T12:10:30;15.45;;;8.63;;
68216;SDS011;55037;52.354;4.992;2023-03-21T12:13:09;17.52;;;8.55;;
68216;SDS011;55037;52.354;4.992;2023-03-21T12:15:56;13.53;;;7.83;;
68216;SDS011;55037;52.354;4.992;2023-03-21T12:18:45;16.38;;;9.35;;
68216;SDS011;55037;52.354;4.992;2023-03-21T12:22:19;14.80;;;8.38;;
68216;SDS011;55037;52.354;4.992;2023-03-21T12:24:44;15.32;;;8.20;;
68216;SDS011;55037;52.354;4.992;2023-03-21T12:27:34;16.55;;;9.77;;
68216;SDS011;55037;52.354;4.992;2023-03-21T12:46:39;18.92;;;10.32;;
68216;SDS011;55037;52.354;4.992;2023-03-21T12:49:23;14.40;;;9.20;;
68216;SDS011;55037;52.354;4.992;2023-03-21T12:51:59;15.15;;;8.05;;
68216;SDS011;55037;52.354;4.992;2023-03-21T12:54:37;13.88;;;8.80;;
68216;SDS011;55037;52.354;4.992;2023-03-21T12:59:54;13.00;;;8.35;;
68216;SDS011;55037;52.354;4.992;2023-03-21T13:02:28;14.20;;;8.68;;
68216;SDS011;55037;52.354;4.992;2023-03-21T13:07:45;13.00;;;8.70;;
68216;SDS011;55037;52.354;4.992;2023-03-21T13:10:23;14.03;;;9.00;;
68216;SDS011;55037;52.354;4.992;2023-03-21T13:18:30;10.48;;;6.22;;
68216;SDS011;55037;52.354;4.992;2023-03-21T13:21:09;8.63;;;5.70;;
68216;SDS011;55037;52.354;4.992;2023-03-21T13:23:54;12.40;;;5.90;;
68216;SDS011;55037;52.354;4.992;2023-03-21T13:26:31;10.60;;;5.55;;
68216;SDS011;55037;52.354;4.992;2023-03-21T13:29:12;9.70;;;5.85;;
68216;SDS011;55037;52.354;4.992;2023-03-21T13:31:52;9.63;;;5.55;;
68216;SDS011;55037;52.354;4.992;2023-03-21T13:34:23;12.50;;;6.10;;
68216;SDS011;55037;52.354;4.992;2023-03-21T13:36:52;7.50;;;4.93;;
68216;SDS011;55037;52.354;4.992;2023-03-21T13:39:25;11.38;;;6.03;;
68216;SDS011;55037;52.354;4.992;2023-03-21T13:41:54;8.07;;;5.00;;
68216;SDS011;55037;52.354;4.992;2023-03-21T13:44:39;12.25;;;6.00;;
68216;SDS011;55037;52.354;4.992;2023-03-21T13:47:23;11.80;;;6.18;;
68216;SDS011;55037;52.354;4.992;2023-03-21T13:55:43;10.43;;;5.55;;
68216;SDS011;55037;52.354;4.992;2023-03-21T13:59:15;10.13;;;5.60;;
68216;SDS011;55037;52.354;4.992;2023-03-21T14:01:13;10.48;;;5.95;;
68216;SDS011;55037;52.354;4.992;2023-03-21T14:04:18;10.20;;;5.77;;
68216;SDS011;55037;52.354;4.992;2023-03-21T14:06:58;8.48;;;5.60;;
68216;SDS011;55037;52.354;4.992;2023-03-21T14:09:32;11.25;;;6.80;;
68216;SDS011;55037;52.354;4.992;2023-03-21T14:12:05;12.15;;;7.35;;
68216;SDS011;55037;52.354;4.992;2023-03-21T14:14:38;9.90;;;5.85;;
68216;SDS011;55037;52.354;4.992;2023-03-21T14:17:20;10.97;;;6.90;;
68216;SDS011;55037;52.354;4.992;2023-03-21T14:20:17;11.05;;;6.65;;
68216;SDS011;55037;52.354;4.992;2023-03-21T14:22:50;11.20;;;7.47;;
68216;SDS011;55037;52.354;4.992;2023-03-21T14:25:19;13.10;;;7.43;;
68216;SDS011;55037;52.354;4.992;2023-03-21T14:27:52;13.07;;;7.55;;
68216;SDS011;55037;52.354;4.992;2023-03-21T14:30:25;11.90;;;5.90;;
68216;SDS011;55037;52.354;4.992;2023-03-21T14:32:55;13.85;;;8.02;;
68216;SDS011;55037;52.354;4.992;2023-03-21T14:35:30;14.35;;;7.70;;
68216;SDS011;55037;52.354;4.992;2023-03-21T14:37:59;11.05;;;6.85;;
68216;SDS011;55037;52.354;4.992;2023-03-21T14:40:29;16.02;;;7.90;;
68216;SDS011;55037;52.354;4.992;2023-03-21T14:42:56;12.30;;;6.83;;
68216;SDS011;55037;52.354;4.992;2023-03-21T14:45:27;12.75;;;7.20;;
68216;SDS011;55037;52.354;4.992;2023-03-21T14:47:57;14.27;;;7.65;;
68216;SDS011;55037;52.354;4.992;2023-03-21T14:50:31;11.93;;;7.63;;
68216;SDS011;55037;52.354;4.992;2023-03-21T14:53:04;14.82;;;7.70;;
68216;SDS011;55037;52.354;4.992;2023-03-21T14:55:33;12.47;;;7.57;;
68216;SDS011;55037;52.354;4.992;2023-03-21T14:58:12;13.73;;;8.40;;
68216;SDS011;55037;52.354;4.992;2023-03-21T15:00:41;10.05;;;7.35;;
68216;SDS011;55037;52.354;4.992;2023-03-21T15:03:09;18.65;;;8.52;;
68216;SDS011;55037;52.354;4.992;2023-03-21T15:05:40;12.73;;;7.57;;
68216;SDS011;55037;52.354;4.992;2023-03-21T15:08:12;14.23;;;8.50;;
68216;SDS011;55037;52.354;4.992;2023-03-21T15:10:43;15.32;;;7.75;;
68216;SDS011;55037;52.354;4.992;2023-03-21T15:13:33;8.80;;;6.40;;
68216;SDS011;55037;52.354;4.992;2023-03-21T15:16:01;11.52;;;7.13;;
68216;SDS011;55037;52.354;4.992;2023-03-21T15:18:31;14.23;;;8.07;;
68216;SDS011;55037;52.354;4.992;2023-03-21T15:21:05;14.37;;;8.17;;
68216;SDS011;55037;52.354;4.992;2023-03-21T15:23:40;13.07;;;8.18;;
68216;SDS011;55037;52.354;4.992;2023-03-21T15:26:14;13.10;;;7.30;;
68216;SDS011;55037;52.354;4.992;2023-03-21T15:28:44;13.90;;;8.18;;
68216;SDS011;55037;52.354;4.992;2023-03-21T15:31:17;15.02;;;8.25;;
68216;SDS011;55037;52.354;4.992;2023-03-21T15:33:47;13.60;;;8.07;;
68216;SDS011;55037;52.354;4.992;2023-03-21T15:36:24;12.27;;;7.70;;
68216;SDS011;55037;52.354;4.992;2023-03-21T15:39:05;15.20;;;9.48;;
68216;SDS011;55037;52.354;4.992;2023-03-21T15:41:38;13.98;;;7.30;;
68216;SDS011;55037;52.354;4.992;2023-03-21T15:46:41;14.53;;;7.87;;
68216;SDS011;55037;52.354;4.992;2023-03-21T15:51:40;12.75;;;7.07;;
68216;SDS011;55037;52.354;4.992;2023-03-21T15:54:20;10.48;;;5.93;;
68216;SDS011;55037;52.354;4.992;2023-03-21T15:56:54;12.20;;;6.13;;
68216;SDS011;55037;52.354;4.992;2023-03-21T15:59:27;16.03;;;5.33;;
68216;SDS011;55037;52.354;4.992;2023-03-21T16:01:58;6.50;;;3.60;;
68216;SDS011;55037;52.354;4.992;2023-03-21T16:04:26;7.28;;;3.28;;
68216;SDS011;55037;52.354;4.992;2023-03-21T16:09:23;8.65;;;3.08;;
68216;SDS011;55037;52.354;4.992;2023-03-21T16:11:52;8.20;;;3.33;;
68216;SDS011;55037;52.354;4.992;2023-03-21T16:14:21;8.82;;;3.15;;
68216;SDS011;55037;52.354;4.992;2023-03-21T16:16:49;5.18;;;2.60;;
68216;SDS011;55037;52.354;4.992;2023-03-21T16:19:17;6.57;;;2.60;;
68216;SDS011;55037;52.354;4.992;2023-03-21T16:21:44;7.40;;;2.83;;
68216;SDS011;55037;52.354;4.992;2023-03-21T16:24:12;6.97;;;2.67;;
68216;SDS011;55037;52.354;4.992;2023-03-21T16:26:43;5.00;;;2.33;;
68216;SDS011;55037;52.354;4.992;2023-03-21T16:29:13;7.28;;;2.80;;
68216;SDS011;55037;52.354;4.992;2023-03-21T16:31:41;6.70;;;2.42;;
68216;SDS011;55037;52.354;4.992;2023-03-21T16:34:09;10.85;;;2.88;;
68216;SDS011;55037;52.354;4.992;2023-03-21T16:36:37;3.37;;;2.17;;
68216;SDS011;55037;52.354;4.992;2023-03-21T16:39:16;6.47;;;2.78;;
68216;SDS011;55037;52.354;4.992;2023-03-21T16:41:45;7.13;;;3.42;;
68216;SDS011;55037;52.354;4.992;2023-03-21T16:44:13;8.00;;;3.90;;